Dickert, Alabama
Current Conditions -  °F | °C
As of 4:55 AM on Friday 31 Oct 2014 (Local Time) from KLGC Reporting Station
Haze Haze  
Wind Chill: 39°   Ceiling: 700
Heat Index: 39°   Visibility: 1.7mi
Dew Point: 38°   Wind: 0mph
Humidity: 99%   Direction: NA
Pressure: 29.95"   Gusts: NA
Location:  33.1661°N, 85.5111°W
Report Text: KLGC 310955Z AUTO 00000KT 1 3/4SM BR VV007 04/04 A2995 RMK AO2 T00380036
Loading
Personal Weather Stations






























Interactive Weather Map
Tropical Storm Tracking
New forecast layout! Learn more

10-Day Weather Forecast

Advertisements
Track Severe Weather on mobile